sensor_id;sensor_type;location;lat;lon;timestamp;temperature;humidity
36990;DHT22;22898;52.102;5.776;2024-03-25T00:00:13;10.30;99.90
36990;DHT22;22898;52.102;5.776;2024-03-25T00:02:40;10.40;99.90
36990;DHT22;22898;52.102;5.776;2024-03-25T00:05:08;10.40;99.90
36990;DHT22;22898;52.102;5.776;2024-03-25T00:07:37;10.80;99.90
36990;DHT22;22898;52.102;5.776;2024-03-25T00:10:04;10.80;99.90
36990;DHT22;22898;52.102;5.776;2024-03-25T00:12:31;10.60;99.90
36990;DHT22;22898;52.102;5.776;2024-03-25T00:14:57;10.30;99.90
36990;DHT22;22898;52.102;5.776;2024-03-25T00:17:23;10.40;99.90
36990;DHT22;22898;52.102;5.776;2024-03-25T00:19:48;10.50;99.90
36990;DHT22;22898;52.102;5.776;2024-03-25T00:22:18;10.60;99.90
36990;DHT22;22898;52.102;5.776;2024-03-25T00:24:47;10.70;99.90
36990;DHT22;22898;52.102;5.776;2024-03-25T00:27:14;10.60;99.90
36990;DHT22;22898;52.102;5.776;2024-03-25T00:29:40;10.70;99.90
36990;DHT22;22898;52.102;5.776;2024-03-25T00:32:06;10.70;99.90
36990;DHT22;22898;52.102;5.776;2024-03-25T00:34:32;10.70;99.90
36990;DHT22;22898;52.102;5.776;2024-03-25T00:36:59;10.90;99.90
36990;DHT22;22898;52.102;5.776;2024-03-25T00:39:25;11.00;99.90
36990;DHT22;22898;52.102;5.776;2024-03-25T00:41:51;10.80;99.90
36990;DHT22;22898;52.102;5.776;2024-03-25T00:44:17;10.60;99.90
36990;DHT22;22898;52.102;5.776;2024-03-25T00:46:43;10.70;99.90
36990;DHT22;22898;52.102;5.776;2024-03-25T00:49:09;10.60;99.90
36990;DHT22;22898;52.102;5.776;2024-03-25T00:51:35;10.50;99.90
36990;DHT22;22898;52.102;5.776;2024-03-25T00:54:01;10.50;99.90
36990;DHT22;22898;52.102;5.776;2024-03-25T00:56:27;10.90;99.90
36990;DHT22;22898;52.102;5.776;2024-03-25T00:58:52;11.20;99.90
36990;DHT22;22898;52.102;5.776;2024-03-25T01:01:18;11.40;99.90
36990;DHT22;22898;52.102;5.776;2024-03-25T01:03:44;11.40;99.90
36990;DHT22;22898;52.102;5.776;2024-03-25T01:06:09;11.30;99.90
36990;DHT22;22898;52.102;5.776;2024-03-25T01:08:35;11.30;99.90
36990;DHT22;22898;52.102;5.776;2024-03-25T01:11:01;10.90;99.90
36990;DHT22;22898;52.102;5.776;2024-03-25T01:13:26;10.80;99.90
36990;DHT22;22898;52.102;5.776;2024-03-25T01:15:52;11.00;99.90
36990;DHT22;22898;52.102;5.776;2024-03-25T01:18:18;11.00;99.90
36990;DHT22;22898;52.102;5.776;2024-03-25T01:20:43;10.80;99.90
36990;DHT22;22898;52.102;5.776;2024-03-25T01:23:10;10.70;99.90
36990;DHT22;22898;52.102;5.776;2024-03-25T01:25:35;10.60;99.90
36990;DHT22;22898;52.102;5.776;2024-03-25T01:28:01;10.50;99.90
36990;DHT22;22898;52.102;5.776;2024-03-25T01:30:27;10.40;99.90
36990;DHT22;22898;52.102;5.776;2024-03-25T01:32:54;10.50;99.90
36990;DHT22;22898;52.102;5.776;2024-03-25T01:35:20;10.60;99.90
36990;DHT22;22898;52.102;5.776;2024-03-25T01:37:46;10.40;99.90
36990;DHT22;22898;52.102;5.776;2024-03-25T01:40:12;10.50;99.90
36990;DHT22;22898;52.102;5.776;2024-03-25T01:42:38;10.80;99.90
36990;DHT22;22898;52.102;5.776;2024-03-25T01:45:04;11.00;99.90
36990;DHT22;22898;52.102;5.776;2024-03-25T01:47:31;11.00;99.90
36990;DHT22;22898;52.102;5.776;2024-03-25T01:49:59;11.20;99.90
36990;DHT22;22898;52.102;5.776;2024-03-25T01:52:25;11.40;99.90
36990;DHT22;22898;52.102;5.776;2024-03-25T01:54:52;11.50;99.90
36990;DHT22;22898;52.102;5.776;2024-03-25T01:57:18;11.20;99.90
36990;DHT22;22898;52.102;5.776;2024-03-25T01:59:44;11.00;99.90
36990;DHT22;22898;52.102;5.776;2024-03-25T02:02:11;10.90;99.90
36990;DHT22;22898;52.102;5.776;2024-03-25T02:04:38;10.70;99.90
36990;DHT22;22898;52.102;5.776;2024-03-25T02:07:07;10.10;99.90
36990;DHT22;22898;52.102;5.776;2024-03-25T02:09:34;10.10;99.90
36990;DHT22;22898;52.102;5.776;2024-03-25T02:12:01;10.10;99.90
36990;DHT22;22898;52.102;5.776;2024-03-25T02:14:27;9.90;99.90
36990;DHT22;22898;52.102;5.776;2024-03-25T02:16:53;9.90;99.90
36990;DHT22;22898;52.102;5.776;2024-03-25T02:19:19;9.70;99.90
36990;DHT22;22898;52.102;5.776;2024-03-25T02:21:47;9.60;99.90
36990;DHT22;22898;52.102;5.776;2024-03-25T02:24:14;9.60;99.90
36990;DHT22;22898;52.102;5.776;2024-03-25T02:26:41;9.60;99.90
36990;DHT22;22898;52.102;5.776;2024-03-25T02:29:09;9.60;99.90
36990;DHT22;22898;52.102;5.776;2024-03-25T02:31:35;9.60;99.90
36990;DHT22;22898;52.102;5.776;2024-03-25T02:34:00;9.40;99.90
36990;DHT22;22898;52.102;5.776;2024-03-25T02:36:26;9.50;99.90
36990;DHT22;22898;52.102;5.776;2024-03-25T02:38:51;9.60;99.90
36990;DHT22;22898;52.102;5.776;2024-03-25T02:41:17;9.30;99.90
36990;DHT22;22898;52.102;5.776;2024-03-25T02:43:43;9.10;99.90
36990;DHT22;22898;52.102;5.776;2024-03-25T02:46:09;9.10;99.90
36990;DHT22;22898;52.102;5.776;2024-03-25T02:48:34;9.20;99.90
36990;DHT22;22898;52.102;5.776;2024-03-25T02:51:00;8.90;99.90
36990;DHT22;22898;52.102;5.776;2024-03-25T02:53:25;9.00;99.90
36990;DHT22;22898;52.102;5.776;2024-03-25T02:55:51;9.30;99.90
36990;DHT22;22898;52.102;5.776;2024-03-25T02:58:17;9.20;99.90
36990;DHT22;22898;52.102;5.776;2024-03-25T03:00:42;8.80;99.90
36990;DHT22;22898;52.102;5.776;2024-03-25T03:03:08;8.60;99.90
36990;DHT22;22898;52.102;5.776;2024-03-25T03:05:33;8.90;99.90
36990;DHT22;22898;52.102;5.776;2024-03-25T03:08:00;9.20;99.90
36990;DHT22;22898;52.102;5.776;2024-03-25T03:10:26;9.00;99.90
36990;DHT22;22898;52.102;5.776;2024-03-25T03:12:51;9.10;99.90
36990;DHT22;22898;52.102;5.776;2024-03-25T03:15:17;9.40;99.90
36990;DHT22;22898;52.102;5.776;2024-03-25T03:17:42;9.80;99.90
36990;DHT22;22898;52.102;5.776;2024-03-25T03:20:09;10.00;99.90
36990;DHT22;22898;52.102;5.776;2024-03-25T03:22:35;10.30;99.90
36990;DHT22;22898;52.102;5.776;2024-03-25T03:25:01;10.10;99.90
36990;DHT22;22898;52.102;5.776;2024-03-25T03:27:26;9.70;99.90
36990;DHT22;22898;52.102;5.776;2024-03-25T03:29:52;9.90;99.90
36990;DHT22;22898;52.102;5.776;2024-03-25T03:32:18;10.30;99.90
36990;DHT22;22898;52.102;5.776;2024-03-25T03:34:43;10.80;99.90
36990;DHT22;22898;52.102;5.776;2024-03-25T03:37:09;11.30;99.90
36990;DHT22;22898;52.102;5.776;2024-03-25T03:39:34;11.80;99.90
36990;DHT22;22898;52.102;5.776;2024-03-25T03:42:00;11.90;99.90
36990;DHT22;22898;52.102;5.776;2024-03-25T03:44:26;12.00;99.90
36990;DHT22;22898;52.102;5.776;2024-03-25T03:46:51;12.20;99.90
36990;DHT22;22898;52.102;5.776;2024-03-25T03:49:17;12.40;99.90
36990;DHT22;22898;52.102;5.776;2024-03-25T03:51:42;12.50;99.90
36990;DHT22;22898;52.102;5.776;2024-03-25T03:54:08;12.60;99.90
36990;DHT22;22898;52.102;5.776;2024-03-25T03:56:33;12.60;99.90
36990;DHT22;22898;52.102;5.776;2024-03-25T03:58:59;12.60;99.90
36990;DHT22;22898;52.102;5.776;2024-03-25T04:01:25;12.70;99.90
36990;DHT22;22898;52.102;5.776;2024-03-25T04:03:50;12.60;99.90
36990;DHT22;22898;52.102;5.776;2024-03-25T04:06:16;12.60;99.90
36990;DHT22;22898;52.102;5.776;2024-03-25T04:08:42;12.60;99.90
36990;DHT22;22898;52.102;5.776;2024-03-25T04:11:10;12.50;99.90
36990;DHT22;22898;52.102;5.776;2024-03-25T04:13:36;12.40;99.90
36990;DHT22;22898;52.102;5.776;2024-03-25T04:16:05;12.40;99.90
36990;DHT22;22898;52.102;5.776;2024-03-25T04:18:32;12.30;99.90
36990;DHT22;22898;52.102;5.776;2024-03-25T04:20:58;12.30;99.90
36990;DHT22;22898;52.102;5.776;2024-03-25T04:23:25;12.20;99.90
36990;DHT22;22898;52.102;5.776;2024-03-25T04:25:51;12.00;99.90
36990;DHT22;22898;52.102;5.776;2024-03-25T04:28:17;11.90;99.90
36990;DHT22;22898;52.102;5.776;2024-03-25T04:30:42;11.90;99.90
36990;DHT22;22898;52.102;5.776;2024-03-25T04:33:08;11.90;99.90
36990;DHT22;22898;52.102;5.776;2024-03-25T04:35:34;11.90;99.90
36990;DHT22;22898;52.102;5.776;2024-03-25T04:38:00;11.90;99.90
36990;DHT22;22898;52.102;5.776;2024-03-25T04:40:26;11.90;99.90
36990;DHT22;22898;52.102;5.776;2024-03-25T04:42:51;11.90;99.90
36990;DHT22;22898;52.102;5.776;2024-03-25T04:45:17;11.80;99.90
36990;DHT22;22898;52.102;5.776;2024-03-25T04:47:43;11.80;99.90
36990;DHT22;22898;52.102;5.776;2024-03-25T04:50:09;11.80;99.90
36990;DHT22;22898;52.102;5.776;2024-03-25T04:52:35;11.80;99.90
36990;DHT22;22898;52.102;5.776;2024-03-25T04:55:01;11.80;99.90
36990;DHT22;22898;52.102;5.776;2024-03-25T04:57:27;11.70;99.90
36990;DHT22;22898;52.102;5.776;2024-03-25T04:59:52;11.70;99.90
36990;DHT22;22898;52.102;5.776;2024-03-25T05:02:18;11.70;99.90
36990;DHT22;22898;52.102;5.776;2024-03-25T05:04:43;11.60;99.90
36990;DHT22;22898;52.102;5.776;2024-03-25T05:07:09;11.70;99.90
36990;DHT22;22898;52.102;5.776;2024-03-25T05:09:35;11.70;99.90
36990;DHT22;22898;52.102;5.776;2024-03-25T05:12:01;11.60;99.90
36990;DHT22;22898;52.102;5.776;2024-03-25T05:14:27;11.30;99.90
36990;DHT22;22898;52.102;5.776;2024-03-25T05:16:52;11.10;99.90
36990;DHT22;22898;52.102;5.776;2024-03-25T05:19:18;11.00;99.90
36990;DHT22;22898;52.102;5.776;2024-03-25T05:21:44;10.90;99.90
36990;DHT22;22898;52.102;5.776;2024-03-25T05:24:10;10.80;99.90
36990;DHT22;22898;52.102;5.776;2024-03-25T05:26:36;10.80;99.90
36990;DHT22;22898;52.102;5.776;2024-03-25T05:29:01;10.60;99.90
36990;DHT22;22898;52.102;5.776;2024-03-25T05:31:27;10.50;99.90
36990;DHT22;22898;52.102;5.776;2024-03-25T05:33:53;10.50;99.90
36990;DHT22;22898;52.102;5.776;2024-03-25T05:36:19;10.50;99.90
36990;DHT22;22898;52.102;5.776;2024-03-25T05:38:48;10.50;99.90
36990;DHT22;22898;52.102;5.776;2024-03-25T05:41:13;10.50;99.90
36990;DHT22;22898;52.102;5.776;2024-03-25T05:43:39;10.60;99.90
36990;DHT22;22898;52.102;5.776;2024-03-25T05:46:04;10.70;99.90
36990;DHT22;22898;52.102;5.776;2024-03-25T05:48:30;10.50;99.90
36990;DHT22;22898;52.102;5.776;2024-03-25T05:51:04;10.50;99.90
36990;DHT22;22898;52.102;5.776;2024-03-25T05:53:35;10.60;99.90
36990;DHT22;22898;52.102;5.776;2024-03-25T05:56:03;10.50;99.90
36990;DHT22;22898;52.102;5.776;2024-03-25T05:58:29;10.40;99.90
36990;DHT22;22898;52.102;5.776;2024-03-25T06:00:55;10.50;99.90
36990;DHT22;22898;52.102;5.776;2024-03-25T06:03:21;10.50;99.90
36990;DHT22;22898;52.102;5.776;2024-03-25T06:05:47;10.60;99.90
36990;DHT22;22898;52.102;5.776;2024-03-25T06:08:13;10.70;99.90
36990;DHT22;22898;52.102;5.776;2024-03-25T06:10:51;10.70;99.90
36990;DHT22;22898;52.102;5.776;2024-03-25T06:13:17;10.90;99.90
36990;DHT22;22898;52.102;5.776;2024-03-25T06:15:43;11.00;99.90
36990;DHT22;22898;52.102;5.776;2024-03-25T06:18:08;11.10;99.90
36990;DHT22;22898;52.102;5.776;2024-03-25T06:20:34;11.30;99.90
36990;DHT22;22898;52.102;5.776;2024-03-25T06:23:00;11.40;99.90
36990;DHT22;22898;52.102;5.776;2024-03-25T06:25:26;11.40;99.90
36990;DHT22;22898;52.102;5.776;2024-03-25T06:27:52;11.40;99.90
36990;DHT22;22898;52.102;5.776;2024-03-25T06:30:18;11.60;99.90
36990;DHT22;22898;52.102;5.776;2024-03-25T06:33:02;11.80;99.90
36990;DHT22;22898;52.102;5.776;2024-03-25T06:35:46;11.90;99.90
36990;DHT22;22898;52.102;5.776;2024-03-25T06:38:12;12.00;99.90
36990;DHT22;22898;52.102;5.776;2024-03-25T06:40:38;12.00;99.90
36990;DHT22;22898;52.102;5.776;2024-03-25T06:43:04;12.20;99.90
36990;DHT22;22898;52.102;5.776;2024-03-25T06:45:30;12.40;99.90
36990;DHT22;22898;52.102;5.776;2024-03-25T06:47:56;12.50;99.90
36990;DHT22;22898;52.102;5.776;2024-03-25T06:50:23;12.60;99.90
36990;DHT22;22898;52.102;5.776;2024-03-25T06:52:49;12.80;99.90
36990;DHT22;22898;52.102;5.776;2024-03-25T06:55:15;12.90;99.90
36990;DHT22;22898;52.102;5.776;2024-03-25T06:57:41;13.00;99.90
36990;DHT22;22898;52.102;5.776;2024-03-25T07:00:07;13.10;99.90
36990;DHT22;22898;52.102;5.776;2024-03-25T07:02:41;13.20;99.90
36990;DHT22;22898;52.102;5.776;2024-03-25T07:05:07;13.30;99.90
36990;DHT22;22898;52.102;5.776;2024-03-25T07:07:32;13.20;99.90
36990;DHT22;22898;52.102;5.776;2024-03-25T07:09:59;13.10;99.90
36990;DHT22;22898;52.102;5.776;2024-03-25T07:12:25;13.00;99.90
36990;DHT22;22898;52.102;5.776;2024-03-25T07:14:51;13.10;99.90
36990;DHT22;22898;52.102;5.776;2024-03-25T07:17:16;13.40;99.90
36990;DHT22;22898;52.102;5.776;2024-03-25T07:19:42;13.50;99.90
36990;DHT22;22898;52.102;5.776;2024-03-25T07:22:09;13.60;99.90
36990;DHT22;22898;52.102;5.776;2024-03-25T07:24:34;13.60;99.90
36990;DHT22;22898;52.102;5.776;2024-03-25T07:27:00;13.70;99.90
36990;DHT22;22898;52.102;5.776;2024-03-25T07:29:25;13.70;99.90
36990;DHT22;22898;52.102;5.776;2024-03-25T07:31:51;13.60;99.90
36990;DHT22;22898;52.102;5.776;2024-03-25T07:34:16;13.60;99.90
36990;DHT22;22898;52.102;5.776;2024-03-25T07:36:42;13.50;99.90
36990;DHT22;22898;52.102;5.776;2024-03-25T07:39:08;13.50;99.90
36990;DHT22;22898;52.102;5.776;2024-03-25T07:41:36;13.40;99.90
36990;DHT22;22898;52.102;5.776;2024-03-25T07:44:02;13.10;99.90
36990;DHT22;22898;52.102;5.776;2024-03-25T07:46:28;12.80;99.90
36990;DHT22;22898;52.102;5.776;2024-03-25T07:48:53;12.60;99.90
36990;DHT22;22898;52.102;5.776;2024-03-25T07:51:19;12.70;99.90
36990;DHT22;22898;52.102;5.776;2024-03-25T07:53:44;12.90;99.90
36990;DHT22;22898;52.102;5.776;2024-03-25T07:56:10;13.30;99.90
36990;DHT22;22898;52.102;5.776;2024-03-25T07:58:35;13.30;99.90
36990;DHT22;22898;52.102;5.776;2024-03-25T08:01:01;13.40;99.90
36990;DHT22;22898;52.102;5.776;2024-03-25T08:03:27;13.40;99.90
36990;DHT22;22898;52.102;5.776;2024-03-25T08:05:52;13.60;99.90
36990;DHT22;22898;52.102;5.776;2024-03-25T08:08:18;13.70;99.90
36990;DHT22;22898;52.102;5.776;2024-03-25T08:10:43;14.00;99.90
36990;DHT22;22898;52.102;5.776;2024-03-25T08:13:13;13.80;99.90
36990;DHT22;22898;52.102;5.776;2024-03-25T08:15:39;13.50;99.90
36990;DHT22;22898;52.102;5.776;2024-03-25T08:18:04;13.40;99.90
36990;DHT22;22898;52.102;5.776;2024-03-25T08:20:30;13.60;99.90
36990;DHT22;22898;52.102;5.776;2024-03-25T08:22:56;13.40;99.90
36990;DHT22;22898;52.102;5.776;2024-03-25T08:25:21;12.90;99.90
36990;DHT22;22898;52.102;5.776;2024-03-25T08:27:47;12.80;99.90
36990;DHT22;22898;52.102;5.776;2024-03-25T08:30:13;13.10;99.90
36990;DHT22;22898;52.102;5.776;2024-03-25T08:32:38;13.50;99.90
36990;DHT22;22898;52.102;5.776;2024-03-25T08:35:04;13.60;99.90
36990;DHT22;22898;52.102;5.776;2024-03-25T08:37:30;13.80;99.90
36990;DHT22;22898;52.102;5.776;2024-03-25T08:39:55;14.10;99.90
36990;DHT22;22898;52.102;5.776;2024-03-25T08:42:21;14.00;99.90
36990;DHT22;22898;52.102;5.776;2024-03-25T08:44:47;13.90;99.90
36990;DHT22;22898;52.102;5.776;2024-03-25T08:47:12;14.30;99.90
36990;DHT22;22898;52.102;5.776;2024-03-25T08:49:38;14.80;99.90
36990;DHT22;22898;52.102;5.776;2024-03-25T08:52:04;15.10;99.90
36990;DHT22;22898;52.102;5.776;2024-03-25T08:54:29;14.80;99.90
36990;DHT22;22898;52.102;5.776;2024-03-25T08:56:55;14.30;99.90
36990;DHT22;22898;52.102;5.776;2024-03-25T08:59:20;14.80;99.90
36990;DHT22;22898;52.102;5.776;2024-03-25T09:01:46;14.60;99.90
36990;DHT22;22898;52.102;5.776;2024-03-25T09:04:12;14.70;99.90
36990;DHT22;22898;52.102;5.776;2024-03-25T09:06:39;14.80;99.90
36990;DHT22;22898;52.102;5.776;2024-03-25T09:09:05;15.20;99.90
36990;DHT22;22898;52.102;5.776;2024-03-25T09:11:49;15.60;99.90
36990;DHT22;22898;52.102;5.776;2024-03-25T09:14:18;15.90;99.90
36990;DHT22;22898;52.102;5.776;2024-03-25T09:16:43;15.70;99.90
36990;DHT22;22898;52.102;5.776;2024-03-25T09:19:09;16.00;99.90
36990;DHT22;22898;52.102;5.776;2024-03-25T09:21:35;16.50;99.90
36990;DHT22;22898;52.102;5.776;2024-03-25T09:24:01;16.70;99.90
36990;DHT22;22898;52.102;5.776;2024-03-25T09:26:26;16.50;99.90
36990;DHT22;22898;52.102;5.776;2024-03-25T09:28:52;16.30;99.90
36990;DHT22;22898;52.102;5.776;2024-03-25T09:31:17;16.00;99.90
36990;DHT22;22898;52.102;5.776;2024-03-25T09:33:43;15.30;99.90
36990;DHT22;22898;52.102;5.776;2024-03-25T09:36:09;15.40;99.90
36990;DHT22;22898;52.102;5.776;2024-03-25T09:38:36;15.60;99.90
36990;DHT22;22898;52.102;5.776;2024-03-25T09:41:02;16.10;99.90
36990;DHT22;22898;52.102;5.776;2024-03-25T09:43:33;15.30;99.90
36990;DHT22;22898;52.102;5.776;2024-03-25T09:46:02;15.50;99.90
36990;DHT22;22898;52.102;5.776;2024-03-25T09:48:28;15.90;99.90
36990;DHT22;22898;52.102;5.776;2024-03-25T09:50:55;15.30;99.90
36990;DHT22;22898;52.102;5.776;2024-03-25T09:53:22;15.40;99.90
36990;DHT22;22898;52.102;5.776;2024-03-25T09:55:47;15.90;99.90
36990;DHT22;22898;52.102;5.776;2024-03-25T09:58:18;15.60;99.90
36990;DHT22;22898;52.102;5.776;2024-03-25T10:00:46;15.40;99.90
36990;DHT22;22898;52.102;5.776;2024-03-25T10:03:12;16.20;99.90
36990;DHT22;22898;52.102;5.776;2024-03-25T10:05:39;16.90;99.90
36990;DHT22;22898;52.102;5.776;2024-03-25T10:08:05;17.00;99.90
36990;DHT22;22898;52.102;5.776;2024-03-25T10:10:33;16.40;99.90
36990;DHT22;22898;52.102;5.776;2024-03-25T10:12:58;16.90;99.90
36990;DHT22;22898;52.102;5.776;2024-03-25T10:15:27;17.60;99.90
36990;DHT22;22898;52.102;5.776;2024-03-25T10:17:52;18.20;99.50
36990;DHT22;22898;52.102;5.776;2024-03-25T10:20:18;18.00;98.90
36990;DHT22;22898;52.102;5.776;2024-03-25T10:22:45;17.80;99.70
36990;DHT22;22898;52.102;5.776;2024-03-25T10:25:29;18.00;99.20
36990;DHT22;22898;52.102;5.776;2024-03-25T10:28:00;17.70;98.00
36990;DHT22;22898;52.102;5.776;2024-03-25T10:30:29;17.10;99.90
36990;DHT22;22898;52.102;5.776;2024-03-25T10:33:02;17.40;98.80
36990;DHT22;22898;52.102;5.776;2024-03-25T10:35:30;18.20;97.10
36990;DHT22;22898;52.102;5.776;2024-03-25T10:38:00;18.30;95.80
36990;DHT22;22898;52.102;5.776;2024-03-25T10:40:34;18.40;97.70
36990;DHT22;22898;52.102;5.776;2024-03-25T10:43:10;18.10;96.30
36990;DHT22;22898;52.102;5.776;2024-03-25T10:45:49;16.50;97.30
36990;DHT22;22898;52.102;5.776;2024-03-25T10:48:26;15.60;99.90
36990;DHT22;22898;52.102;5.776;2024-03-25T10:50:55;16.00;99.50
36990;DHT22;22898;52.102;5.776;2024-03-25T10:53:22;16.50;98.40
36990;DHT22;22898;52.102;5.776;2024-03-25T10:55:50;17.20;97.70
36990;DHT22;22898;52.102;5.776;2024-03-25T10:58:16;17.30;97.00
36990;DHT22;22898;52.102;5.776;2024-03-25T11:00:43;17.70;95.50
36990;DHT22;22898;52.102;5.776;2024-03-25T11:03:10;18.00;95.00
36990;DHT22;22898;52.102;5.776;2024-03-25T11:05:37;18.30;93.60
36990;DHT22;22898;52.102;5.776;2024-03-25T11:08:12;17.70;95.40
36990;DHT22;22898;52.102;5.776;2024-03-25T11:10:44;18.20;94.80
36990;DHT22;22898;52.102;5.776;2024-03-25T11:13:16;18.80;93.30
36990;DHT22;22898;52.102;5.776;2024-03-25T11:15:43;18.60;95.50
36990;DHT22;22898;52.102;5.776;2024-03-25T11:18:16;18.80;95.10
36990;DHT22;22898;52.102;5.776;2024-03-25T11:20:42;19.10;94.20
36990;DHT22;22898;52.102;5.776;2024-03-25T11:23:13;19.40;93.50
36990;DHT22;22898;52.102;5.776;2024-03-25T11:25:39;19.90;92.60
36990;DHT22;22898;52.102;5.776;2024-03-25T11:28:06;19.60;90.80
36990;DHT22;22898;52.102;5.776;2024-03-25T11:30:32;18.30;92.10
36990;DHT22;22898;52.102;5.776;2024-03-25T11:33:01;17.40;94.80
36990;DHT22;22898;52.102;5.776;2024-03-25T11:35:27;17.90;93.10
36990;DHT22;22898;52.102;5.776;2024-03-25T11:37:53;18.40;92.10
36990;DHT22;22898;52.102;5.776;2024-03-25T11:40:18;18.40;91.10
36990;DHT22;22898;52.102;5.776;2024-03-25T11:42:46;18.40;92.00
36990;DHT22;22898;52.102;5.776;2024-03-25T11:45:18;18.60;91.90
36990;DHT22;22898;52.102;5.776;2024-03-25T11:47:48;19.00;91.50
36990;DHT22;22898;52.102;5.776;2024-03-25T11:50:16;18.90;91.40
36990;DHT22;22898;52.102;5.776;2024-03-25T11:52:42;18.90;90.10
36990;DHT22;22898;52.102;5.776;2024-03-25T11:55:08;18.20;89.40
36990;DHT22;22898;52.102;5.776;2024-03-25T11:57:35;17.90;91.70
36990;DHT22;22898;52.102;5.776;2024-03-25T12:00:02;18.20;91.80
36990;DHT22;22898;52.102;5.776;2024-03-25T12:02:31;18.30;91.30
36990;DHT22;22898;52.102;5.776;2024-03-25T12:04:57;18.70;91.70
36990;DHT22;22898;52.102;5.776;2024-03-25T12:07:22;18.90;91.10
36990;DHT22;22898;52.102;5.776;2024-03-25T12:09:48;19.30;91.70
36990;DHT22;22898;52.102;5.776;2024-03-25T12:12:33;19.20;91.60
36990;DHT22;22898;52.102;5.776;2024-03-25T12:15:00;19.10;92.20
36990;DHT22;22898;52.102;5.776;2024-03-25T12:17:28;19.00;92.40
36990;DHT22;22898;52.102;5.776;2024-03-25T12:20:08;19.10;91.60
36990;DHT22;22898;52.102;5.776;2024-03-25T12:22:35;19.30;91.60
36990;DHT22;22898;52.102;5.776;2024-03-25T12:25:04;19.80;90.50
36990;DHT22;22898;52.102;5.776;2024-03-25T12:27:35;20.20;89.50
36990;DHT22;22898;52.102;5.776;2024-03-25T12:30:03;20.20;88.30
36990;DHT22;22898;52.102;5.776;2024-03-25T12:35:02;20.00;88.90
36990;DHT22;22898;52.102;5.776;2024-03-25T12:37:29;20.30;87.60
36990;DHT22;22898;52.102;5.776;2024-03-25T12:39:54;19.70;89.90
36990;DHT22;22898;52.102;5.776;2024-03-25T12:42:24;19.40;89.30
36990;DHT22;22898;52.102;5.776;2024-03-25T12:44:49;19.50;90.50
36990;DHT22;22898;52.102;5.776;2024-03-25T12:47:15;19.70;89.20
36990;DHT22;22898;52.102;5.776;2024-03-25T12:49:41;19.80;88.70
36990;DHT22;22898;52.102;5.776;2024-03-25T12:52:07;19.70;89.80
36990;DHT22;22898;52.102;5.776;2024-03-25T12:54:33;19.80;86.80
36990;DHT22;22898;52.102;5.776;2024-03-25T12:56:59;19.80;89.40
36990;DHT22;22898;52.102;5.776;2024-03-25T12:59:25;19.70;88.20
36990;DHT22;22898;52.102;5.776;2024-03-25T13:01:50;19.60;83.80
36990;DHT22;22898;52.102;5.776;2024-03-25T13:04:17;19.60;85.80
36990;DHT22;22898;52.102;5.776;2024-03-25T13:06:42;19.40;87.20
36990;DHT22;22898;52.102;5.776;2024-03-25T13:09:08;19.30;86.40
36990;DHT22;22898;52.102;5.776;2024-03-25T13:11:34;19.40;84.60
36990;DHT22;22898;52.102;5.776;2024-03-25T13:14:00;19.30;83.10
36990;DHT22;22898;52.102;5.776;2024-03-25T13:16:26;18.40;83.20
36990;DHT22;22898;52.102;5.776;2024-03-25T13:18:51;17.80;83.40
36990;DHT22;22898;52.102;5.776;2024-03-25T13:21:17;17.90;86.00
36990;DHT22;22898;52.102;5.776;2024-03-25T13:23:43;17.90;85.70
36990;DHT22;22898;52.102;5.776;2024-03-25T13:26:08;17.50;86.70
36990;DHT22;22898;52.102;5.776;2024-03-25T13:28:34;17.70;86.10
36990;DHT22;22898;52.102;5.776;2024-03-25T13:31:00;17.80;85.70
36990;DHT22;22898;52.102;5.776;2024-03-25T13:33:25;18.10;85.90
36990;DHT22;22898;52.102;5.776;2024-03-25T13:35:51;17.90;82.50
36990;DHT22;22898;52.102;5.776;2024-03-25T13:38:17;17.70;84.40
36990;DHT22;22898;52.102;5.776;2024-03-25T13:40:42;17.60;84.80
36990;DHT22;22898;52.102;5.776;2024-03-25T13:43:08;18.00;85.10
36990;DHT22;22898;52.102;5.776;2024-03-25T13:45:34;18.00;81.90
36990;DHT22;22898;52.102;5.776;2024-03-25T13:48:00;17.40;83.60
36990;DHT22;22898;52.102;5.776;2024-03-25T13:50:26;17.90;84.50
36990;DHT22;22898;52.102;5.776;2024-03-25T13:52:51;18.40;84.50
36990;DHT22;22898;52.102;5.776;2024-03-25T13:55:17;18.80;84.50
36990;DHT22;22898;52.102;5.776;2024-03-25T13:57:44;19.30;83.60
36990;DHT22;22898;52.102;5.776;2024-03-25T14:00:10;19.80;78.70
36990;DHT22;22898;52.102;5.776;2024-03-25T14:02:36;20.10;74.70
36990;DHT22;22898;52.102;5.776;2024-03-25T14:05:04;20.20;74.30
36990;DHT22;22898;52.102;5.776;2024-03-25T14:07:30;20.20;73.50
36990;DHT22;22898;52.102;5.776;2024-03-25T14:09:56;20.20;73.00
36990;DHT22;22898;52.102;5.776;2024-03-25T14:12:21;20.40;75.00
36990;DHT22;22898;52.102;5.776;2024-03-25T14:14:49;20.50;72.20
36990;DHT22;22898;52.102;5.776;2024-03-25T14:17:14;20.70;74.40
36990;DHT22;22898;52.102;5.776;2024-03-25T14:19:40;20.40;76.60
36990;DHT22;22898;52.102;5.776;2024-03-25T14:22:05;20.10;72.90
36990;DHT22;22898;52.102;5.776;2024-03-25T14:24:31;19.90;77.00
36990;DHT22;22898;52.102;5.776;2024-03-25T14:26:57;20.10;76.40
36990;DHT22;22898;52.102;5.776;2024-03-25T14:29:22;20.50;76.00
36990;DHT22;22898;52.102;5.776;2024-03-25T14:31:48;20.30;74.40
36990;DHT22;22898;52.102;5.776;2024-03-25T14:34:13;20.10;75.00
36990;DHT22;22898;52.102;5.776;2024-03-25T14:36:39;20.40;74.20
36990;DHT22;22898;52.102;5.776;2024-03-25T14:39:04;20.30;75.40
36990;DHT22;22898;52.102;5.776;2024-03-25T14:41:39;20.30;76.20
36990;DHT22;22898;52.102;5.776;2024-03-25T14:44:05;20.40;74.80
36990;DHT22;22898;52.102;5.776;2024-03-25T14:46:30;20.40;72.10
36990;DHT22;22898;52.102;5.776;2024-03-25T14:48:56;20.50;75.10
36990;DHT22;22898;52.102;5.776;2024-03-25T14:51:21;20.20;73.70
36990;DHT22;22898;52.102;5.776;2024-03-25T14:53:47;19.50;79.10
36990;DHT22;22898;52.102;5.776;2024-03-25T14:56:13;19.30;80.10
36990;DHT22;22898;52.102;5.776;2024-03-25T14:58:38;19.60;79.60
36990;DHT22;22898;52.102;5.776;2024-03-25T15:01:05;19.40;78.60
36990;DHT22;22898;52.102;5.776;2024-03-25T15:03:31;18.90;78.30
36990;DHT22;22898;52.102;5.776;2024-03-25T15:05:57;18.40;79.60
36990;DHT22;22898;52.102;5.776;2024-03-25T15:08:22;18.20;80.20
36990;DHT22;22898;52.102;5.776;2024-03-25T15:10:48;18.00;81.50
36990;DHT22;22898;52.102;5.776;2024-03-25T15:13:14;18.30;79.90
36990;DHT22;22898;52.102;5.776;2024-03-25T15:15:40;18.50;79.80
36990;DHT22;22898;52.102;5.776;2024-03-25T15:18:08;18.60;82.50
36990;DHT22;22898;52.102;5.776;2024-03-25T15:20:34;18.50;81.60
36990;DHT22;22898;52.102;5.776;2024-03-25T15:22:59;18.50;83.50
36990;DHT22;22898;52.102;5.776;2024-03-25T15:25:25;18.60;80.50
36990;DHT22;22898;52.102;5.776;2024-03-25T15:27:52;18.70;78.90
36990;DHT22;22898;52.102;5.776;2024-03-25T15:30:18;18.70;79.80